Terminal Aerodrome Forecast
Issued by NWS Huntsville, AL

Home | Current Version | Previous Version | Text Only | Print | Product List | Glossary On
Versions: 1 2 3 4 5 6 7 8 9 10 11 12 13 14 15 16 17 18 19 20 21 22 23 24 25 26
000
FTUS44 KHUN 300520
TAFMSL
TAF
KMSL 300520Z 3006/3106 28003KT P6SM SCT250
     FM301000 VRB02KT P6SM SCT250
      TEMPO 3010/3013 5SM BR
     FM301400 01008KT P6SM SKC=

USA.gov is the U.S. government's official web portal to all federal, state and local government web resources and services.